Van Dyne, Wisconsin
Current Conditions -  °F | °C
As of 1:53 AM on Friday 24 Oct 2014 (Local Time) from KOSH Reporting Station
Haze Haze  
Wind Chill: 48°   Ceiling: 500
Heat Index: 48°   Visibility: 4mi
Dew Point: 47°   Wind: 3mph
Humidity: 96%   Direction: 280°W
Pressure: 30.02"   Gusts: NA
Location:  43.89°N, 88.5°W
Report Text: KOSH 240653Z 28003KT 4SM BR OVC005 09/08 A3002 RMK AO2 SLP168 T00890083
Loading
Personal Weather Stations






























Interactive Weather Map
Tropical Storm Tracking
New forecast layout! Learn more

10-Day Weather Forecast

Advertisements
Track Severe Weather on mobile